Time;durP1;ratioP1;P1;durP2;ratioP2;P2;SDS_P1;SDS_P2;PMS_P1;PMS_P2;Temp;Humidity;BMP_temperature;BMP_pressure;BME280_temperature;BME280_humidity;BME280_pressure;Samples;Min_cycle;Max_cycle;Signal;HPM_P1;HPM_P2
2022/12/11 00:01:41;;;;;;;13.57;6.68;;;5.70;99.90;;;;;;4730243;30;20132;-76
2022/12/11 00:04:08;;;;;;;16.60;7.15;;;4.80;99.90;;;;;;4725747;30;20067;-76
2022/12/11 00:06:36;;;;;;;15.90;7.22;;;4.80;99.90;;;;;;4714200;30;20072;-76
2022/12/11 00:09:03;;;;;;;13.00;5.38;;;5.60;99.90;;;;;;4729292;30;20048;-76
2022/12/11 00:11:31;;;;;;;13.18;5.88;;;4.20;99.90;;;;;;4730547;30;20060;-77
2022/12/11 00:13:58;;;;;;;14.70;6.30;;;4.80;99.90;;;;;;4728542;30;20037;-76
2022/12/11 00:16:25;;;;;;;10.30;4.80;;;4.80;99.90;;;;;;4741817;30;20070;-77
2022/12/11 00:18:54;;;;;;;13.35;6.10;;;4.70;99.90;;;;;;4732366;30;20048;-76
2022/12/11 00:21:21;;;;;;;13.10;5.97;;;4.70;99.90;;;;;;4732689;30;20057;-76
2022/12/11 00:23:49;;;;;;;15.27;5.80;;;4.70;99.90;;;;;;4730055;30;20055;-76
2022/12/11 00:26:17;;;;;;;13.35;5.70;;;4.60;99.90;;;;;;4729149;30;20064;-76
2022/12/11 00:28:45;;;;;;;12.95;6.43;;;4.60;99.90;;;;;;4748878;30;20052;-76
2022/12/11 00:31:16;;;;;;;12.95;6.07;;;5.10;99.90;;;;;;4720595;30;20153;-77
2022/12/11 00:33:44;;;;;;;14.10;6.90;;;4.50;99.90;;;;;;4733039;30;20390;-76
2022/12/11 00:36:17;;;;;;;13.25;6.32;;;4.60;99.90;;;;;;4732237;30;20048;-77
2022/12/11 00:38:44;;;;;;;12.90;6.40;;;4.30;99.90;;;;;;4729161;30;20139;-76
2022/12/11 00:41:14;;;;;;;13.50;5.57;;;4.50;99.90;;;;;;4733766;30;20086;-77
2022/12/11 00:43:42;;;;;;;12.43;4.82;;;4.50;99.90;;;;;;4731446;30;20498;-76
2022/12/11 00:46:10;;;;;;;12.85;6.30;;;4.50;99.90;;;;;;4729589;30;20561;-77
2022/12/11 00:48:39;;;;;;;12.00;4.93;;;4.30;99.90;;;;;;4729672;30;20068;-76
2022/12/11 00:51:07;;;;;;;12.23;5.40;;;5.00;99.90;;;;;;4717141;30;20065;-76
2022/12/11 00:53:37;;;;;;;10.70;5.30;;;4.50;99.90;;;;;;4716440;30;20183;-76
2022/12/11 00:56:31;;;;;;;11.32;5.28;;;4.50;99.90;;;;;;4745659;30;20533;-77
2022/12/11 00:58:59;;;;;;;11.73;4.80;;;4.10;99.90;;;;;;4744512;30;20064;-77
2022/12/11 01:01:26;;;;;;;13.00;4.60;;;4.90;99.90;;;;;;4727800;30;20048;-77
2022/12/11 01:03:53;;;;;;;11.82;4.63;;;4.60;99.90;;;;;;4730812;30;20044;-77
2022/12/11 01:06:23;;;;;;;10.98;4.82;;;4.50;99.90;;;;;;4730515;30;20044;-77
2022/12/11 01:10:22;;;;;;;14.45;6.88;;;4.20;99.90;;;;;;4716124;30;20068;-77
2022/12/11 01:11:41;;;;;;;13.77;5.68;;;4.30;99.90;;;;;;4744074;30;20053;-77
2022/12/11 01:14:10;;;;;;;17.85;7.03;;;4.00;99.90;;;;;;4719040;30;20056;-77
2022/12/11 01:16:38;;;;;;;14.30;6.60;;;4.60;99.90;;;;;;4718838;30;20538;-77
2022/12/11 01:19:06;;;;;;;12.73;5.88;;;3.90;99.90;;;;;;4722155;30;20063;-76
2022/12/11 01:21:37;;;;;;;12.95;6.18;;;4.30;99.90;;;;;;4735897;30;20500;-77
2022/12/11 01:24:06;;;;;;;11.00;5.55;;;4.10;99.90;;;;;;4721278;30;20575;-77
2022/12/11 01:26:37;;;;;;;15.27;7.15;;;4.30;99.90;;;;;;4732594;30;20059;-76
2022/12/11 01:29:04;;;;;;;14.75;7.40;;;4.30;99.90;;;;;;4738184;30;20044;-77
2022/12/11 01:31:32;;;;;;;13.77;5.88;;;4.30;99.90;;;;;;4727833;30;20067;-77
2022/12/11 01:34:00;;;;;;;13.25;6.28;;;4.10;99.90;;;;;;4723988;30;20382;-77
2022/12/11 01:36:27;;;;;;;15.05;6.47;;;3.90;99.90;;;;;;4731064;30;20083;-77
2022/12/11 01:38:55;;;;;;;12.95;5.55;;;4.20;99.90;;;;;;4720315;30;20408;-77
2022/12/11 01:41:23;;;;;;;13.32;6.63;;;4.20;99.90;;;;;;4737706;30;20163;-77
2022/12/11 01:44:27;;;;;;;12.85;5.82;;;4.10;99.90;;;;;;4737244;30;20078;-77
2022/12/11 01:47:00;;;;;;;12.73;5.28;;;4.20;99.90;;;;;;4740456;30;20036;-77
2022/12/11 01:49:29;;;;;;;;;;;4.20;99.90;;;;;;4733991;30;20588;-77
2022/12/11 01:52:11;;;;;;;12.48;5.32;;;4.20;99.90;;;;;;4734311;30;19930;-77
2022/12/11 01:54:38;;;;;;;11.55;5.10;;;4.10;99.90;;;;;;4712335;30;20067;-77
2022/12/11 01:57:10;;;;;;;11.82;5.95;;;3.80;99.90;;;;;;4718812;30;20088;-77
2022/12/11 01:59:43;;;;;;;13.82;6.45;;;4.00;99.90;;;;;;4722130;30;20045;-77
2022/12/11 02:02:21;;;;;;;;;;;2.70;99.90;;;;;;4712741;30;20094;-77
2022/12/11 02:05:10;;;;;;;9.98;4.55;;;3.30;99.90;;;;;;4704123;30;20732;-77
2022/12/11 02:07:46;;;;;;;11.73;6.35;;;3.90;99.90;;;;;;4706741;30;20501;-76
2022/12/11 02:10:15;;;;;;;13.93;5.50;;;3.80;99.90;;;;;;4691247;30;20084;-76
2022/12/11 02:13:06;;;;;;;9.75;4.28;;;3.60;99.90;;;;;;4704048;30;20053;-77
2022/12/11 02:15:39;;;;;;;11.07;5.75;;;3.90;99.90;;;;;;4703926;30;20060;-77
2022/12/11 02:18:16;;;;;;;14.43;6.55;;;2.70;99.90;;;;;;4687386;30;20065;-77
2022/12/11 02:20:59;;;;;;;12.38;4.18;;;3.40;99.90;;;;;;4690255;30;20048;-77
2022/12/11 02:24:04;;;;;;;10.65;4.88;;;3.80;99.90;;;;;;4733426;30;20051;-77
2022/12/11 02:26:49;;;;;;;11.75;5.07;;;3.70;99.90;;;;;;4728513;30;20067;-77
2022/12/11 02:29:25;;;;;;;10.27;4.30;;;3.70;99.90;;;;;;4732579;30;22596;-77
2022/12/11 02:32:12;;;;;;;9.23;4.18;;;3.70;99.90;;;;;;4734535;30;20123;-77
2022/12/11 02:34:46;;;;;;;8.45;3.40;;;3.70;99.90;;;;;;4746507;30;20420;-76
2022/12/11 02:37:21;;;;;;;8.45;3.60;;;3.70;99.90;;;;;;4736604;30;20056;-77
2022/12/11 02:39:51;;;;;;;9.52;4.43;;;2.70;99.90;;;;;;4728741;30;20110;-76
2022/12/11 02:42:20;;;;;;;9.27;4.78;;;3.60;99.90;;;;;;4733060;30;20391;-77
2022/12/11 02:44:50;;;;;;;8.35;3.80;;;3.50;99.90;;;;;;4734775;30;20053;-77
2022/12/11 02:47:19;;;;;;;7.85;3.35;;;3.40;99.90;;;;;;4734023;30;20056;-76
2022/12/11 02:49:50;;;;;;;8.07;3.50;;;3.30;99.90;;;;;;4732227;30;20127;-77
2022/12/11 02:52:21;;;;;;;8.85;3.47;;;3.30;99.90;;;;;;4734421;30;20068;-76
2022/12/11 02:54:56;;;;;;;7.88;3.75;;;3.40;99.90;;;;;;4718276;30;20052;-77
2022/12/11 02:57:32;;;;;;;8.82;3.22;;;3.30;99.90;;;;;;4735303;30;20121;-76
2022/12/11 02:59:59;;;;;;;6.80;2.70;;;3.40;99.90;;;;;;4736398;30;20094;-76
2022/12/11 03:02:27;;;;;;;8.73;3.92;;;3.30;99.90;;;;;;4720072;30;20049;-76
2022/12/11 03:04:56;;;;;;;7.35;3.55;;;3.30;99.90;;;;;;4733619;30;20056;-77
2022/12/11 03:07:33;;;;;;;7.57;2.88;;;3.20;99.90;;;;;;4731489;30;20056;-76
2022/12/11 03:10:01;;;;;;;8.13;2.95;;;3.30;99.90;;;;;;4750458;30;20044;-76
2022/12/11 03:12:35;;;;;;;6.72;3.47;;;3.00;99.90;;;;;;4732342;30;20591;-77
2022/12/11 03:15:10;;;;;;;7.88;2.95;;;3.20;99.90;;;;;;4740690;30;20414;-76
2022/12/11 03:17:41;;;;;;;7.30;2.95;;;2.40;99.90;;;;;;4723119;30;20600;-77
2022/12/11 03:20:30;;;;;;;7.20;2.88;;;3.10;99.90;;;;;;4738171;30;20053;-77
2022/12/11 03:23:12;;;;;;;7.03;3.45;;;3.10;99.90;;;;;;4730859;30;20060;-76
2022/12/11 03:26:02;;;;;;;5.60;2.60;;;2.60;99.90;;;;;;4729492;30;20061;-76
2022/12/11 03:28:32;;;;;;;6.22;2.13;;;3.00;99.90;;;;;;4730893;30;20509;-76
2022/12/11 03:31:06;;;;;;;4.45;2.28;;;3.50;99.90;;;;;;4735885;30;20060;-76
2022/12/11 03:33:40;;;;;;;5.57;2.53;;;3.10;99.90;;;;;;4719296;30;20421;-76
2022/12/11 03:36:12;;;;;;;7.90;3.25;;;3.00;99.90;;;;;;4736528;30;20116;-77
2022/12/11 03:38:49;;;;;;;6.03;2.55;;;3.00;99.90;;;;;;4698546;30;20068;-76
2022/12/11 03:41:21;;;;;;;6.72;2.95;;;3.00;99.90;;;;;;4714947;30;20049;-77
2022/12/11 03:43:52;;;;;;;5.05;2.70;;;3.00;99.90;;;;;;4682332;30;20206;-76
2022/12/11 03:46:27;;;;;;;5.43;2.17;;;3.00;99.90;;;;;;4714453;30;20131;-77
2022/12/11 03:48:59;;;;;;;5.07;1.58;;;2.90;99.90;;;;;;4699146;30;20976;-76
2022/12/11 03:51:30;;;;;;;4.85;1.83;;;2.80;99.90;;;;;;4712738;30;20777;-76
2022/12/11 03:53:58;;;;;;;4.53;2.08;;;2.50;99.90;;;;;;4708532;30;20087;-76
2022/12/11 03:56:28;;;;;;;7.68;2.17;;;2.80;99.90;;;;;;4689089;30;20053;-76
2022/12/11 03:58:56;;;;;;;5.18;2.30;;;2.80;99.90;;;;;;4711681;30;20515;-76
2022/12/11 04:01:31;;;;;;;3.58;1.73;;;2.80;99.90;;;;;;4713806;30;20139;-76
2022/12/11 04:04:01;;;;;;;5.30;2.03;;;2.80;99.90;;;;;;4712919;30;20068;-76
2022/12/11 04:06:28;;;;;;;3.70;1.58;;;3.20;99.90;;;;;;4684564;30;20150;-75
2022/12/11 04:08:56;;;;;;;4.25;1.70;;;2.70;99.90;;;;;;4698157;30;20510;-77
2022/12/11 04:11:35;;;;;;;4.47;2.10;;;2.70;99.90;;;;;;4698016;30;20076;-76
2022/12/11 04:16:59;;;;;;;6.00;1.92;;;2.70;99.90;;;;;;4721502;30;20052;-76
2022/12/11 04:25:04;;;;;;;3.92;2.15;;;2.70;99.90;;;;;;4730936;30;20048;-75
2022/12/11 04:27:50;;;;;;;5.68;1.70;;;2.70;99.90;;;;;;4718991;30;20058;-77
2022/12/11 04:30:21;;;;;;;3.78;1.45;;;2.60;99.90;;;;;;4720203;30;20044;-76
2022/12/11 04:32:50;;;;;;;4.78;1.63;;;2.50;99.90;;;;;;4735039;30;20457;-76
2022/12/11 04:35:18;;;;;;;3.60;1.25;;;2.70;99.90;;;;;;4716457;30;20052;-76
2022/12/11 04:37:46;;;;;;;3.17;1.80;;;2.60;99.90;;;;;;4717686;30;20052;-76
2022/12/11 04:40:16;;;;;;;5.30;1.83;;;2.70;99.90;;;;;;4734761;30;20048;-76
2022/12/11 04:42:43;;;;;;;2.80;1.60;;;2.60;99.90;;;;;;4743299;30;20044;-76
2022/12/11 04:45:11;;;;;;;4.70;1.95;;;2.20;99.90;;;;;;4720176;30;20060;-77
2022/12/11 04:47:40;;;;;;;4.35;2.00;;;2.60;99.90;;;;;;4713481;30;20123;-76
2022/12/11 04:50:09;;;;;;;6.63;2.53;;;2.60;99.90;;;;;;4732869;30;20068;-77
2022/12/11 04:52:38;;;;;;;3.55;1.60;;;2.60;99.90;;;;;;4715356;30;20532;-76
2022/12/11 04:55:06;;;;;;;3.90;1.80;;;2.60;99.90;;;;;;4731465;30;20582;-76
2022/12/11 04:57:39;;;;;;;5.47;2.15;;;2.60;99.90;;;;;;4732517;30;20583;-76
2022/12/11 05:00:08;;;;;;;5.03;2.00;;;2.40;99.90;;;;;;4727654;30;20057;-76
2022/12/11 05:02:40;;;;;;;5.90;2.55;;;2.60;99.90;;;;;;4715880;30;20122;-76
2022/12/11 05:05:09;;;;;;;4.05;1.85;;;2.70;99.90;;;;;;4732366;30;20527;-76
2022/12/11 05:07:39;;;;;;;4.65;2.08;;;2.20;99.90;;;;;;4731279;30;20052;-76
2022/12/11 05:10:08;;;;;;;7.13;3.35;;;2.60;99.90;;;;;;4729449;30;20067;-76
2022/12/11 05:12:35;;;;;;;7.93;3.00;;;2.40;99.90;;;;;;4715737;30;20052;-76
2022/12/11 05:15:05;;;;;;;7.07;3.13;;;2.60;99.90;;;;;;4731456;30;20192;-76
2022/12/11 05:17:35;;;;;;;5.70;2.47;;;2.60;99.90;;;;;;4744026;30;20136;-76
2022/12/11 05:20:03;;;;;;;6.53;3.17;;;2.60;99.90;;;;;;4735021;30;20079;-76
2022/12/11 05:22:30;;;;;;;7.97;3.22;;;2.50;99.90;;;;;;4713355;30;20041;-77
2022/12/11 05:24:58;;;;;;;7.95;3.50;;;2.60;99.90;;;;;;4718225;30;20052;-76
2022/12/11 05:27:26;;;;;;;10.00;3.63;;;2.70;99.90;;;;;;4731393;30;20135;-76
2022/12/11 05:29:54;;;;;;;11.27;3.92;;;2.60;99.90;;;;;;4739014;30;20543;-76
2022/12/11 05:32:25;;;;;;;11.68;5.00;;;2.60;99.90;;;;;;4728865;30;20060;-76
2022/12/11 05:34:54;;;;;;;8.20;3.78;;;2.60;99.90;;;;;;4740991;30;20082;-75
2022/12/11 05:37:22;;;;;;;15.75;7.07;;;2.60;99.90;;;;;;4720100;30;20048;-77
2022/12/11 05:39:49;;;;;;;22.38;9.32;;;1.40;99.90;;;;;;4734056;30;20123;-76
2022/12/11 05:42:17;;;;;;;10.57;4.82;;;2.60;99.90;;;;;;4731214;30;20524;-76
2022/12/11 05:44:50;;;;;;;11.23;6.70;;;2.60;99.90;;;;;;4732505;30;20055;-76
2022/12/11 05:47:19;;;;;;;9.30;4.07;;;2.50;99.90;;;;;;4716838;30;20082;-77
2022/12/11 05:49:46;;;;;;;10.55;4.63;;;2.50;99.90;;;;;;4720806;30;20158;-76
2022/12/11 05:52:15;;;;;;;11.10;5.05;;;2.60;99.90;;;;;;4731733;30;20089;-76
2022/12/11 05:54:43;;;;;;;9.50;4.07;;;2.50;99.90;;;;;;4722442;30;20113;-76
2022/12/11 05:57:14;;;;;;;9.88;4.60;;;1.60;99.90;;;;;;4723223;30;20058;-76
2022/12/11 05:59:41;;;;;;;10.35;4.68;;;2.50;99.90;;;;;;4736027;30;20471;-76
2022/12/11 06:02:09;;;;;;;7.90;3.53;;;2.80;99.90;;;;;;4720389;30;20063;-76
2022/12/11 06:04:36;;;;;;;10.38;4.53;;;2.30;99.90;;;;;;4734703;30;20060;-76
2022/12/11 06:07:05;;;;;;;11.27;4.72;;;2.30;99.90;;;;;;4735888;30;20402;-75
2022/12/11 06:09:33;;;;;;;8.60;4.13;;;2.40;99.90;;;;;;4732731;30;20044;-76
2022/12/11 06:12:01;;;;;;;7.85;3.95;;;2.60;99.90;;;;;;4733015;30;20060;-76
2022/12/11 06:14:29;;;;;;;12.48;4.78;;;2.50;99.90;;;;;;4726309;30;20052;-76
2022/12/11 06:16:56;;;;;;;13.10;4.97;;;2.50;99.90;;;;;;4713192;30;20106;-75
2022/12/11 06:19:24;;;;;;;10.77;5.40;;;2.50;99.90;;;;;;4735198;30;20109;-76
2022/12/11 06:21:51;;;;;;;11.05;5.35;;;2.50;99.90;;;;;;4732888;30;20044;-76
2022/12/11 06:24:19;;;;;;;15.15;5.57;;;2.50;99.90;;;;;;4743812;30;20464;-75
2022/12/11 06:26:46;;;;;;;11.20;4.03;;;2.40;99.90;;;;;;4732840;30;20040;-76
2022/12/11 06:29:14;;;;;;;7.38;3.63;;;2.40;99.90;;;;;;4728952;30;20171;-76
2022/12/11 06:31:42;;;;;;;9.07;3.65;;;2.50;99.90;;;;;;4722358;30;20108;-76
2022/12/11 06:34:13;;;;;;;7.80;4.05;;;2.30;99.90;;;;;;4727429;30;20044;-76
2022/12/11 06:36:40;;;;;;;10.48;3.28;;;2.40;99.90;;;;;;4730610;30;20147;-76
2022/12/11 06:39:08;;;;;;;10.18;4.53;;;2.50;99.90;;;;;;4732257;30;20052;-75
2022/12/11 06:41:35;;;;;;;9.00;4.88;;;2.30;99.90;;;;;;4715984;30;20040;-76
2022/12/11 06:44:03;;;;;;;9.15;4.00;;;2.30;99.90;;;;;;4736338;30;20142;-76
2022/12/11 06:46:31;;;;;;;9.63;4.05;;;2.60;99.90;;;;;;4730752;30;20536;-77
2022/12/11 06:48:58;;;;;;;7.00;2.83;;;2.60;99.90;;;;;;4727182;30;20044;-75
2022/12/11 06:51:26;;;;;;;9.90;3.67;;;2.50;99.90;;;;;;4728116;30;20056;-77
2022/12/11 06:53:55;;;;;;;7.28;3.60;;;2.60;99.90;;;;;;4719265;30;20393;-76
2022/12/11 06:56:24;;;;;;;11.25;4.25;;;2.20;99.90;;;;;;4728585;30;20573;-76
2022/12/11 06:58:55;;;;;;;8.25;3.88;;;2.40;99.90;;;;;;4720185;30;20040;-77
2022/12/11 07:01:33;;;;;;;9.90;4.60;;;1.80;99.90;;;;;;4717448;30;20060;-77
2022/12/11 07:04:02;;;;;;;7.30;3.28;;;2.60;99.90;;;;;;4738967;30;20159;-77
2022/12/11 07:06:30;;;;;;;8.82;3.72;;;2.50;99.90;;;;;;4736767;30;20072;-77
2022/12/11 07:09:04;;;;;;;9.70;4.55;;;2.30;99.90;;;;;;4707805;30;20048;-76
2022/12/11 07:11:32;;;;;;;9.90;4.07;;;2.70;99.90;;;;;;4721448;30;20075;-76
2022/12/11 07:14:02;;;;;;;8.77;4.38;;;2.30;99.90;;;;;;4707990;30;20053;-77
2022/12/11 07:16:32;;;;;;;9.57;3.67;;;2.60;99.90;;;;;;4725472;30;20067;-77
2022/12/11 07:18:59;;;;;;;11.32;5.10;;;2.50;99.90;;;;;;4727008;30;20048;-77
2022/12/11 07:21:27;;;;;;;8.95;3.80;;;2.20;99.90;;;;;;4709647;30;20153;-77
2022/12/11 07:23:58;;;;;;;11.00;5.78;;;2.50;99.90;;;;;;4713178;30;20112;-77
2022/12/11 07:26:32;;;;;;;7.93;3.88;;;2.50;99.90;;;;;;4739682;30;20063;-77
2022/12/11 07:29:02;;;;;;;9.77;4.80;;;2.50;99.90;;;;;;4722797;30;20061;-77
2022/12/11 07:31:30;;;;;;;9.15;4.50;;;2.40;99.90;;;;;;4695314;30;20144;-77
2022/12/11 07:34:05;;;;;;;8.73;3.70;;;2.60;99.90;;;;;;4717483;30;20067;-77
2022/12/11 07:36:34;;;;;;;10.57;5.13;;;2.60;99.90;;;;;;4687457;30;20049;-77
2022/12/11 07:39:01;;;;;;;11.25;4.82;;;2.60;99.90;;;;;;4709607;30;20079;-77
2022/12/11 07:41:35;;;;;;;8.82;4.15;;;2.80;99.90;;;;;;4716064;30;20058;-77
2022/12/11 07:44:10;;;;;;;9.45;4.57;;;3.10;99.90;;;;;;4738174;30;20113;-77
2022/12/11 07:46:59;;;;;;;8.77;4.55;;;2.70;99.90;;;;;;4678711;30;20577;-76
2022/12/11 07:49:29;;;;;;;11.30;4.78;;;2.70;99.90;;;;;;4702622;30;20052;-77
2022/12/11 07:52:02;;;;;;;8.82;3.85;;;2.40;99.90;;;;;;4705612;30;20057;-76
2022/12/11 07:54:37;;;;;;;7.40;3.55;;;2.50;99.90;;;;;;4666561;30;20075;-76
2022/12/11 07:57:11;;;;;;;10.23;4.15;;;2.60;99.90;;;;;;4649143;30;20106;-77
2022/12/11 07:59:44;;;;;;;8.20;4.10;;;2.70;99.90;;;;;;4650420;30;20201;-77
2022/12/11 08:02:38;;;;;;;8.82;4.45;;;2.70;99.90;;;;;;4652854;30;20126;-77
2022/12/11 08:05:29;;;;;;;8.98;4.43;;;2.80;99.90;;;;;;4659100;30;20153;-77
2022/12/11 08:07:57;;;;;;;10.95;4.13;;;2.60;99.90;;;;;;4652868;30;20056;-77
2022/12/11 08:10:30;;;;;;;9.48;4.82;;;2.80;99.90;;;;;;4676424;30;20081;-77
2022/12/11 08:12:58;;;;;;;11.15;4.82;;;2.60;99.90;;;;;;4669114;30;20959;-77
2022/12/11 08:15:25;;;;;;;10.70;3.85;;;2.40;99.90;;;;;;4668052;30;20050;-77
2022/12/11 08:17:54;;;;;;;8.77;4.38;;;2.80;99.90;;;;;;4678607;30;20057;-77
2022/12/11 08:20:29;;;;;;;9.25;4.78;;;2.80;99.90;;;;;;4686136;30;20057;-77
2022/12/11 08:22:58;;;;;;;8.07;3.78;;;2.80;99.90;;;;;;4654000;30;20069;-77
2022/12/11 08:25:28;;;;;;;9.80;3.72;;;2.70;99.90;;;;;;4675255;30;20066;-76
2022/12/11 08:28:00;;;;;;;9.57;5.07;;;2.80;99.90;;;;;;4686491;30;20053;-77
2022/12/11 08:30:29;;;;;;;9.07;4.43;;;3.60;99.90;;;;;;4702451;30;21023;-77
2022/12/11 08:32:58;;;;;;;8.38;4.80;;;3.00;99.90;;;;;;4668900;30;20104;-77
2022/12/11 08:35:34;;;;;;;9.15;4.30;;;2.80;99.90;;;;;;4691905;30;20048;-77
2022/12/11 08:38:05;;;;;;;12.52;4.45;;;2.60;99.90;;;;;;4692030;30;20127;-77
2022/12/11 08:40:45;;;;;;;6.68;3.42;;;2.90;99.90;;;;;;4723390;30;20061;-77
2022/12/11 08:43:18;;;;;;;11.48;5.32;;;2.80;99.90;;;;;;4726351;30;20111;-77
2022/12/11 08:45:47;;;;;;;8.18;3.65;;;2.60;99.90;;;;;;4712632;30;20445;-77
2022/12/11 08:48:34;;;;;;;7.07;3.40;;;2.90;99.90;;;;;;4709709;30;20045;-77
2022/12/11 08:51:09;;;;;;;8.93;4.72;;;2.90;99.90;;;;;;4699700;30;20056;-77
2022/12/11 08:53:43;;;;;;;8.88;3.90;;;3.00;99.90;;;;;;4721957;30;20057;-76
2022/12/11 08:56:22;;;;;;;9.60;4.78;;;2.90;99.90;;;;;;4694056;30;20045;-77
2022/12/11 08:59:15;;;;;;;7.97;4.40;;;2.90;99.90;;;;;;4704281;30;20058;-76
2022/12/11 09:01:43;;;;;;;11.48;6.38;;;2.90;99.90;;;;;;4663009;30;20061;-77
2022/12/11 09:07:35;;;;;;;8.45;4.10;;;3.00;99.90;;;;;;4751583;30;20099;-77
2022/12/11 09:10:05;;;;;;;11.50;5.63;;;2.80;99.90;;;;;;4792205;24;20530;-77
2022/12/11 09:13:14;;;;;;;88.97;36.80;;;3.00;99.90;;;;;;4721334;30;20118;-77
2022/12/11 09:16:26;;;;;;;28.50;13.75;;;3.10;99.90;;;;;;4697554;30;20119;-77
2022/12/11 09:19:00;;;;;;;10.38;4.97;;;1.60;99.90;;;;;;4665608;30;20079;-77
2022/12/11 09:21:43;;;;;;;6.57;3.15;;;2.80;99.90;;;;;;4651621;30;20078;-78
2022/12/11 09:24:26;;;;;;;9.02;5.07;;;2.80;99.90;;;;;;4647407;30;20059;-77
2022/12/11 09:27:09;;;;;;;11.30;6.95;;;3.00;99.90;;;;;;4652416;30;20054;-77
2022/12/11 09:32:17;;;;;;;23.45;11.82;;;3.00;99.90;;;;;;4748015;30;20057;-77
2022/12/11 09:35:16;;;;;;;9.93;5.63;;;3.40;99.90;;;;;;4703103;30;20057;-77
2022/12/11 09:38:03;;;;;;;8.13;3.80;;;2.90;99.90;;;;;;4704001;30;20049;-77
2022/12/11 09:40:32;;;;;;;11.73;7.35;;;2.90;99.90;;;;;;4699247;30;20070;-77
2022/12/11 09:43:46;;;;;;;20.23;13.18;;;3.00;99.90;;;;;;4686089;30;20050;-78
2022/12/11 09:46:41;;;;;;;9.52;5.43;;;3.00;99.90;;;;;;4704641;30;20057;-77
2022/12/11 09:49:38;;;;;;;5.72;2.85;;;2.90;99.90;;;;;;4646267;30;20448;-77
2022/12/11 09:52:44;;;;;;;6.88;3.95;;;2.90;99.90;;;;;;4650810;30;20122;-77
2022/12/11 09:55:24;;;;;;;7.75;4.30;;;3.10;99.90;;;;;;4641336;30;20047;-77
2022/12/11 09:58:10;;;;;;;6.35;3.60;;;2.50;99.90;;;;;;4630136;31;20078;-78
2022/12/11 10:01:04;;;;;;;7.30;4.60;;;3.10;99.90;;;;;;4641054;30;20054;-77
2022/12/11 10:04:14;;;;;;;9.95;5.60;;;3.10;99.90;;;;;;4647468;30;20063;-77
2022/12/11 10:07:23;;;;;;;8.82;3.63;;;3.00;99.90;;;;;;4647361;30;20066;-77
2022/12/11 10:10:02;;;;;;;4.13;2.10;;;3.20;99.90;;;;;;4647753;30;20043;-77
2022/12/11 10:12:52;;;;;;;4.85;2.03;;;3.00;99.90;;;;;;4656506;30;20130;-77
2022/12/11 10:16:30;;;;;;;7.40;4.80;;;3.00;99.90;;;;;;4653925;30;20055;-77
2022/12/11 10:19:38;;;;;;;19.98;8.32;;;3.10;99.90;;;;;;4624552;30;20070;-77
2022/12/11 10:22:21;;;;;;;12.68;5.32;;;2.40;99.90;;;;;;4643867;31;20066;-78
2022/12/11 10:24:52;;;;;;;;;;;3.10;99.90;;;;;;4635031;30;20059;-77
2022/12/11 10:28:08;;;;;;;3.88;2.05;;;3.00;99.90;;;;;;4645381;30;19912;-78
2022/12/11 10:31:29;;;;;;;6.28;2.28;;;3.00;99.90;;;;;;4609778;30;20439;-77
2022/12/11 10:34:07;;;;;;;8.02;3.80;;;3.00;99.90;;;;;;4617253;31;20047;-77
2022/12/11 10:36:44;;;;;;;8.90;4.30;;;3.00;99.90;;;;;;4614146;30;20056;-77
2022/12/11 10:39:17;;;;;;;5.15;2.03;;;3.00;99.90;;;;;;4608268;31;20056;-77
2022/12/11 10:42:22;;;;;;;5.93;3.33;;;3.00;99.90;;;;;;4618382;30;20068;-77
2022/12/11 10:45:51;;;;;;;9.77;5.13;;;3.00;99.90;;;;;;4599324;31;20052;-78
2022/12/11 10:48:32;;;;;;;7.63;2.88;;;2.80;99.90;;;;;;4705155;24;20129;-77
2022/12/11 10:51:23;;;;;;;9.57;4.40;;;2.90;99.90;;;;;;4713592;30;20061;-77
2022/12/11 10:53:57;;;;;;;7.38;3.30;;;3.00;99.90;;;;;;4713227;30;20081;-77
2022/12/11 10:56:36;;;;;;;12.48;6.18;;;3.00;99.90;;;;;;4686694;30;20045;-77
2022/12/11 10:59:04;;;;;;;16.42;7.38;;;2.80;99.90;;;;;;4712234;30;20057;-77
2022/12/11 11:01:32;;;;;;;9.27;4.60;;;3.00;99.90;;;;;;4681490;30;20053;-77
2022/12/11 11:04:29;;;;;;;17.15;8.15;;;3.00;99.90;;;;;;4681594;30;20654;-77
2022/12/11 11:07:17;;;;;;;;;;;3.00;99.90;;;;;;4682151;30;20232;-77
2022/12/11 11:09:47;;;;;;;8.20;3.67;;;2.90;99.90;;;;;;4695158;30;19931;-77
2022/12/11 11:12:45;;;;;;;10.18;5.05;;;3.00;99.90;;;;;;4672895;30;20058;-77
2022/12/11 11:15:52;;;;;;;5.97;2.70;;;2.90;99.90;;;;;;4664740;30;20057;-77
2022/12/11 11:18:25;;;;;;;9.65;4.45;;;2.70;99.90;;;;;;4661582;30;20054;-77
2022/12/11 11:20:54;;;;;;;10.80;3.58;;;2.80;99.90;;;;;;4658094;30;20071;-77
2022/12/11 11:23:27;;;;;;;9.85;5.80;;;3.00;99.90;;;;;;4626489;31;20047;-77
2022/12/11 11:26:01;;;;;;;5.40;2.40;;;2.80;99.90;;;;;;4619477;31;20070;-77
2022/12/11 11:28:34;;;;;;;10.35;5.35;;;3.00;99.90;;;;;;4630255;31;20066;-77
2022/12/11 11:31:16;;;;;;;9.10;5.80;;;3.00;99.90;;;;;;4619994;31;20052;-77
2022/12/11 11:33:49;;;;;;;5.55;3.45;;;3.40;99.90;;;;;;4606333;31;20079;-77
2022/12/11 11:36:34;;;;;;;7.57;3.00;;;3.00;99.90;;;;;;4876612;24;20099;-77
2022/12/11 11:39:33;;;;;;;6.72;3.53;;;3.40;99.90;;;;;;4767378;30;20031;-77
2022/12/11 11:42:10;;;;;;;7.18;3.78;;;3.00;99.90;;;;;;4730347;30;20507;-77
2022/12/11 11:44:55;;;;;;;9.13;4.45;;;3.00;99.90;;;;;;4757871;30;20056;-77
2022/12/11 11:48:10;;;;;;;10.93;7.22;;;3.20;99.90;;;;;;4803943;24;20111;31
2022/12/11 11:54:39;;;;;;;18.95;8.75;;;2.20;99.90;;;;;;4680004;30;20103;-77
2022/12/11 11:57:36;;;;;;;12.02;6.68;;;3.00;99.90;;;;;;4670496;30;20050;-77
2022/12/11 12:03:28;;;;;;;5.63;2.60;;;3.40;99.90;;;;;;4621403;31;20067;-77
2022/12/11 12:06:47;;;;;;;7.32;3.95;;;3.20;99.90;;;;;;4594966;31;20364;-77
2022/12/11 12:10:03;;;;;;;5.60;2.70;;;2.90;99.90;;;;;;4586436;31;20076;-77
2022/12/11 12:12:46;;;;;;;36.95;20.23;;;3.10;99.90;;;;;;4597011;31;20099;-77
2022/12/11 12:15:41;;;;;;;7.40;3.85;;;3.00;99.90;;;;;;4599861;31;20048;-77
2022/12/11 12:18:49;;;;;;;22.92;13.35;;;2.80;99.90;;;;;;4600296;31;20058;-77
2022/12/11 12:24:26;;;;;;;6.70;3.33;;;3.10;99.90;;;;;;4752074;30;22512;-77
2022/12/11 12:31:07;;;;;;;9.65;3.83;;;2.60;99.90;;;;;;4753884;30;20045;-78
2022/12/11 12:34:01;;;;;;;11.60;5.88;;;3.20;99.90;;;;;;4746438;30;20080;-79
2022/12/11 12:37:06;;;;;;;6.90;2.85;;;3.00;99.90;;;;;;4746095;30;20054;-78
2022/12/11 12:39:56;;;;;;;6.60;3.30;;;3.10;99.90;;;;;;4731746;30;20048;-79
2022/12/11 12:42:33;;;;;;;7.10;2.78;;;3.00;99.90;;;;;;4721505;30;20073;-78
2022/12/11 12:45:13;;;;;;;7.88;3.03;;;3.00;99.90;;;;;;4736395;30;20105;-79
2022/12/11 12:47:49;;;;;;;8.38;3.42;;;3.00;99.90;;;;;;4725800;30;20144;-79
2022/12/11 12:50:35;;;;;;;16.52;7.90;;;3.00;99.90;;;;;;4727376;30;20064;-78
2022/12/11 12:53:05;;;;;;;13.35;4.68;;;2.90;99.90;;;;;;4741424;30;20063;-78
2022/12/11 12:55:34;;;;;;;8.88;3.00;;;3.00;99.90;;;;;;4725637;30;20044;-79
2022/12/11 12:58:24;;;;;;;9.93;4.07;;;2.30;99.90;;;;;;4715765;30;20052;-79
2022/12/11 13:00:52;;;;;;;11.05;5.03;;;3.40;99.90;;;;;;4734481;30;20056;-79
2022/12/11 13:03:30;;;;;;;7.30;3.60;;;2.90;99.90;;;;;;4733089;30;20457;-79
2022/12/11 13:06:03;;;;;;;9.35;4.03;;;2.90;99.90;;;;;;4737673;30;20056;-79
2022/12/11 13:08:42;;;;;;;10.50;4.77;;;3.20;99.90;;;;;;4746805;30;20501;-79
2022/12/11 13:11:12;;;;;;;16.40;6.80;;;2.90;99.90;;;;;;4734830;30;20078;-77
2022/12/11 13:13:49;;;;;;;8.95;4.15;;;3.00;99.90;;;;;;4750125;30;20056;-77
2022/12/11 13:16:25;;;;;;;7.85;2.97;;;2.70;99.90;;;;;;4756893;30;20076;-77
2022/12/11 13:18:53;;;;;;;13.02;5.18;;;3.00;99.90;;;;;;4746460;30;20052;-77
2022/12/11 13:21:33;;;;;;;13.98;6.35;;;3.00;99.90;;;;;;4743961;30;20052;-78
2022/12/11 13:24:20;;;;;;;10.52;5.90;;;3.00;99.90;;;;;;4744389;30;20044;-77
2022/12/11 13:26:51;;;;;;;13.27;5.38;;;3.00;99.90;;;;;;4753025;30;20871;-77
2022/12/11 13:29:30;;;;;;;18.20;9.70;;;3.10;99.90;;;;;;4739117;30;20155;-78
2022/12/11 13:32:08;;;;;;;15.73;7.35;;;3.10;99.90;;;;;;4742916;30;20048;-77
2022/12/11 13:34:39;;;;;;;18.60;8.55;;;3.10;99.90;;;;;;4753699;30;20414;-77
2022/12/11 13:37:24;;;;;;;33.97;16.27;;;3.10;99.90;;;;;;4744330;30;20564;-77
2022/12/11 13:39:52;;;;;;;54.38;25.63;;;3.10;99.90;;;;;;4734802;30;20063;-77
2022/12/11 13:42:41;;;;;;;36.70;17.98;;;3.10;99.90;;;;;;4744610;30;20067;-77
2022/12/11 13:45:28;;;;;;;21.45;10.75;;;3.10;99.90;;;;;;4743505;30;20171;-77
2022/12/11 13:47:58;;;;;;;21.15;9.40;;;3.10;99.90;;;;;;4738378;30;20048;-79
2022/12/11 13:50:32;;;;;;;19.02;9.10;;;3.10;99.90;;;;;;4747634;30;20083;-79
2022/12/11 13:53:03;;;;;;;14.30;7.88;;;3.10;99.90;;;;;;4747389;30;20082;-79
2022/12/11 13:55:33;;;;;;;8.82;4.35;;;3.10;99.90;;;;;;4739649;30;20048;-79
2022/12/11 13:58:02;;;;;;;10.98;5.45;;;3.00;99.90;;;;;;4748427;30;20459;-79
2022/12/11 14:00:31;;;;;;;12.35;5.78;;;3.00;99.90;;;;;;4754154;30;20059;-79
2022/12/11 14:03:06;;;;;;;12.50;5.57;;;2.90;99.90;;;;;;4741924;30;20056;-79
2022/12/11 14:05:34;;;;;;;13.68;5.93;;;2.90;99.90;;;;;;4737148;30;20057;-79
2022/12/11 14:08:36;;;;;;;23.40;10.00;;;2.80;99.90;;;;;;4731174;30;20052;-79